sensor_id;sensor_type;location;lat;lon;timestamp;P1;durP1;ratioP1;P2;durP2;ratioP2
7049;SDS011;22263;52.260;10.548;2022-12-07T00:00:25;38.67;;;23.73;;
7049;SDS011;22263;52.260;10.548;2022-12-07T00:02:55;36.30;;;22.90;;
7049;SDS011;22263;52.260;10.548;2022-12-07T00:05:27;41.20;;;23.03;;
7049;SDS011;22263;52.260;10.548;2022-12-07T00:07:58;38.80;;;23.40;;
7049;SDS011;22263;52.260;10.548;2022-12-07T00:10:28;37.67;;;23.00;;
7049;SDS011;22263;52.260;10.548;2022-12-07T00:12:58;33.93;;;22.60;;
7049;SDS011;22263;52.260;10.548;2022-12-07T00:15:28;38.77;;;23.80;;
7049;SDS011;22263;52.260;10.548;2022-12-07T00:17:57;37.13;;;23.43;;
7049;SDS011;22263;52.260;10.548;2022-12-07T00:20:29;38.23;;;24.33;;
7049;SDS011;22263;52.260;10.548;2022-12-07T00:22:59;37.70;;;22.97;;
7049;SDS011;22263;52.260;10.548;2022-12-07T00:25:29;36.87;;;22.03;;
7049;SDS011;22263;52.260;10.548;2022-12-07T00:27:59;37.33;;;23.33;;
7049;SDS011;22263;52.260;10.548;2022-12-07T00:30:29;38.90;;;25.10;;
7049;SDS011;22263;52.260;10.548;2022-12-07T00:32:58;37.30;;;23.70;;
7049;SDS011;22263;52.260;10.548;2022-12-07T00:35:31;36.13;;;22.63;;
7049;SDS011;22263;52.260;10.548;2022-12-07T00:38:00;37.43;;;24.17;;
7049;SDS011;22263;52.260;10.548;2022-12-07T00:40:30;37.43;;;24.00;;
7049;SDS011;22263;52.260;10.548;2022-12-07T00:42:59;39.27;;;25.20;;
7049;SDS011;22263;52.260;10.548;2022-12-07T00:45:29;41.27;;;24.50;;
7049;SDS011;22263;52.260;10.548;2022-12-07T00:47:59;37.80;;;22.40;;
7049;SDS011;22263;52.260;10.548;2022-12-07T00:50:31;41.13;;;24.67;;
7049;SDS011;22263;52.260;10.548;2022-12-07T00:53:00;42.30;;;24.63;;
7049;SDS011;22263;52.260;10.548;2022-12-07T00:55:32;43.77;;;24.90;;
7049;SDS011;22263;52.260;10.548;2022-12-07T00:58:02;43.73;;;25.87;;
7049;SDS011;22263;52.260;10.548;2022-12-07T01:00:35;44.17;;;26.00;;
7049;SDS011;22263;52.260;10.548;2022-12-07T01:03:07;44.60;;;25.53;;
7049;SDS011;22263;52.260;10.548;2022-12-07T01:05:48;44.17;;;27.23;;
7049;SDS011;22263;52.260;10.548;2022-12-07T01:08:18;45.53;;;25.93;;
7049;SDS011;22263;52.260;10.548;2022-12-07T01:10:48;46.53;;;26.87;;
7049;SDS011;22263;52.260;10.548;2022-12-07T01:13:19;52.87;;;26.90;;
7049;SDS011;22263;52.260;10.548;2022-12-07T01:15:48;49.57;;;26.33;;
7049;SDS011;22263;52.260;10.548;2022-12-07T01:18:18;51.10;;;28.70;;
7049;SDS011;22263;52.260;10.548;2022-12-07T01:20:58;43.30;;;26.27;;
7049;SDS011;22263;52.260;10.548;2022-12-07T01:23:29;46.17;;;26.60;;
7049;SDS011;22263;52.260;10.548;2022-12-07T01:26:01;48.70;;;27.53;;
7049;SDS011;22263;52.260;10.548;2022-12-07T01:28:33;49.50;;;28.37;;
7049;SDS011;22263;52.260;10.548;2022-12-07T01:31:04;47.07;;;28.90;;
7049;SDS011;22263;52.260;10.548;2022-12-07T01:33:36;49.37;;;29.43;;
7049;SDS011;22263;52.260;10.548;2022-12-07T01:36:14;51.50;;;29.43;;
7049;SDS011;22263;52.260;10.548;2022-12-07T01:38:45;54.67;;;29.63;;
7049;SDS011;22263;52.260;10.548;2022-12-07T01:41:18;55.30;;;29.40;;
7049;SDS011;22263;52.260;10.548;2022-12-07T01:46:44;48.10;;;28.53;;
7049;SDS011;22263;52.260;10.548;2022-12-07T01:49:17;55.53;;;29.77;;
7049;SDS011;22263;52.260;10.548;2022-12-07T01:51:58;60.30;;;31.30;;
7049;SDS011;22263;52.260;10.548;2022-12-07T01:54:33;64.00;;;31.90;;
7049;SDS011;22263;52.260;10.548;2022-12-07T01:57:04;57.53;;;30.57;;
7049;SDS011;22263;52.260;10.548;2022-12-07T01:59:35;56.93;;;31.10;;
7049;SDS011;22263;52.260;10.548;2022-12-07T02:02:07;57.83;;;31.30;;
7049;SDS011;22263;52.260;10.548;2022-12-07T02:04:41;58.50;;;30.50;;
7049;SDS011;22263;52.260;10.548;2022-12-07T02:07:14;63.67;;;33.83;;
7049;SDS011;22263;52.260;10.548;2022-12-07T02:09:44;61.40;;;32.93;;
7049;SDS011;22263;52.260;10.548;2022-12-07T02:12:14;59.27;;;30.90;;
7049;SDS011;22263;52.260;10.548;2022-12-07T02:14:44;59.73;;;31.20;;
7049;SDS011;22263;52.260;10.548;2022-12-07T02:17:14;59.77;;;31.00;;
7049;SDS011;22263;52.260;10.548;2022-12-07T02:20:02;62.63;;;32.47;;
7049;SDS011;22263;52.260;10.548;2022-12-07T02:22:54;59.03;;;29.90;;
7049;SDS011;22263;52.260;10.548;2022-12-07T02:25:41;60.77;;;31.17;;
7049;SDS011;22263;52.260;10.548;2022-12-07T02:28:27;64.40;;;30.50;;
7049;SDS011;22263;52.260;10.548;2022-12-07T02:31:04;58.60;;;31.00;;
7049;SDS011;22263;52.260;10.548;2022-12-07T02:33:40;61.60;;;30.43;;
7049;SDS011;22263;52.260;10.548;2022-12-07T02:36:15;56.50;;;29.50;;
7049;SDS011;22263;52.260;10.548;2022-12-07T02:38:50;60.77;;;31.00;;
7049;SDS011;22263;52.260;10.548;2022-12-07T02:41:26;55.67;;;30.20;;
7049;SDS011;22263;52.260;10.548;2022-12-07T02:43:59;55.60;;;30.97;;
7049;SDS011;22263;52.260;10.548;2022-12-07T02:46:36;57.20;;;30.87;;
7049;SDS011;22263;52.260;10.548;2022-12-07T02:49:10;62.87;;;31.90;;
7049;SDS011;22263;52.260;10.548;2022-12-07T02:51:40;59.10;;;31.07;;
7049;SDS011;22263;52.260;10.548;2022-12-07T02:54:12;62.23;;;32.73;;
7049;SDS011;22263;52.260;10.548;2022-12-07T02:56:45;58.70;;;31.47;;
7049;SDS011;22263;52.260;10.548;2022-12-07T02:59:21;55.87;;;30.60;;
7049;SDS011;22263;52.260;10.548;2022-12-07T03:02:04;54.57;;;29.40;;
7049;SDS011;22263;52.260;10.548;2022-12-07T03:04:45;52.40;;;30.30;;
7049;SDS011;22263;52.260;10.548;2022-12-07T03:07:24;55.63;;;32.20;;
7049;SDS011;22263;52.260;10.548;2022-12-07T03:10:01;57.67;;;32.03;;
7049;SDS011;22263;52.260;10.548;2022-12-07T03:12:35;61.90;;;32.50;;
7049;SDS011;22263;52.260;10.548;2022-12-07T03:15:14;58.03;;;31.00;;
7049;SDS011;22263;52.260;10.548;2022-12-07T03:17:49;59.10;;;31.40;;
7049;SDS011;22263;52.260;10.548;2022-12-07T03:20:22;56.07;;;31.33;;
7049;SDS011;22263;52.260;10.548;2022-12-07T03:22:54;52.10;;;29.53;;
7049;SDS011;22263;52.260;10.548;2022-12-07T03:25:23;53.83;;;31.43;;
7049;SDS011;22263;52.260;10.548;2022-12-07T03:27:56;55.97;;;32.60;;
7049;SDS011;22263;52.260;10.548;2022-12-07T03:30:29;51.73;;;30.57;;
7049;SDS011;22263;52.260;10.548;2022-12-07T03:33:09;51.20;;;30.73;;
7049;SDS011;22263;52.260;10.548;2022-12-07T03:35:43;50.20;;;29.80;;
7049;SDS011;22263;52.260;10.548;2022-12-07T03:38:18;50.80;;;30.07;;
7049;SDS011;22263;52.260;10.548;2022-12-07T03:40:53;53.03;;;28.40;;
7049;SDS011;22263;52.260;10.548;2022-12-07T03:43:27;48.70;;;28.33;;
7049;SDS011;22263;52.260;10.548;2022-12-07T03:46:00;53.00;;;30.80;;
7049;SDS011;22263;52.260;10.548;2022-12-07T03:48:40;47.87;;;28.90;;
7049;SDS011;22263;52.260;10.548;2022-12-07T03:51:14;52.27;;;29.73;;
7049;SDS011;22263;52.260;10.548;2022-12-07T03:53:51;46.60;;;28.83;;
7049;SDS011;22263;52.260;10.548;2022-12-07T03:56:27;49.27;;;29.83;;
7049;SDS011;22263;52.260;10.548;2022-12-07T03:58:59;49.10;;;28.07;;
7049;SDS011;22263;52.260;10.548;2022-12-07T04:01:28;50.93;;;30.17;;
7049;SDS011;22263;52.260;10.548;2022-12-07T04:04:01;46.00;;;27.43;;
7049;SDS011;22263;52.260;10.548;2022-12-07T04:06:30;46.87;;;29.23;;
7049;SDS011;22263;52.260;10.548;2022-12-07T04:09:00;47.17;;;27.53;;
7049;SDS011;22263;52.260;10.548;2022-12-07T04:11:30;43.60;;;27.57;;
7049;SDS011;22263;52.260;10.548;2022-12-07T04:13:59;41.53;;;26.03;;
7049;SDS011;22263;52.260;10.548;2022-12-07T04:16:42;43.87;;;26.53;;
7049;SDS011;22263;52.260;10.548;2022-12-07T04:19:14;43.10;;;26.73;;
7049;SDS011;22263;52.260;10.548;2022-12-07T04:21:45;44.17;;;26.17;;
7049;SDS011;22263;52.260;10.548;2022-12-07T04:24:15;44.87;;;26.50;;
7049;SDS011;22263;52.260;10.548;2022-12-07T04:26:46;38.60;;;24.23;;
7049;SDS011;22263;52.260;10.548;2022-12-07T04:29:16;39.83;;;24.30;;
7049;SDS011;22263;52.260;10.548;2022-12-07T04:31:47;36.10;;;23.50;;
7049;SDS011;22263;52.260;10.548;2022-12-07T04:34:20;36.27;;;23.43;;
7049;SDS011;22263;52.260;10.548;2022-12-07T04:36:49;42.50;;;24.03;;
7049;SDS011;22263;52.260;10.548;2022-12-07T04:39:20;45.27;;;22.80;;
7049;SDS011;22263;52.260;10.548;2022-12-07T04:41:51;37.97;;;23.60;;
7049;SDS011;22263;52.260;10.548;2022-12-07T04:44:21;38.30;;;22.23;;
7049;SDS011;22263;52.260;10.548;2022-12-07T04:46:52;38.27;;;22.47;;
7049;SDS011;22263;52.260;10.548;2022-12-07T04:49:26;36.13;;;21.70;;
7049;SDS011;22263;52.260;10.548;2022-12-07T04:51:55;33.13;;;20.60;;
7049;SDS011;22263;52.260;10.548;2022-12-07T04:54:25;34.17;;;21.43;;
7049;SDS011;22263;52.260;10.548;2022-12-07T04:56:55;38.10;;;22.07;;
7049;SDS011;22263;52.260;10.548;2022-12-07T04:59:25;32.03;;;20.83;;
7049;SDS011;22263;52.260;10.548;2022-12-07T05:01:54;34.80;;;22.03;;
7049;SDS011;22263;52.260;10.548;2022-12-07T05:04:27;36.57;;;21.37;;
7049;SDS011;22263;52.260;10.548;2022-12-07T05:06:56;35.87;;;20.60;;
7049;SDS011;22263;52.260;10.548;2022-12-07T05:09:26;32.70;;;20.67;;
7049;SDS011;22263;52.260;10.548;2022-12-07T05:11:56;32.17;;;19.67;;
7049;SDS011;22263;52.260;10.548;2022-12-07T05:14:25;33.00;;;20.17;;
7049;SDS011;22263;52.260;10.548;2022-12-07T05:16:55;30.97;;;18.97;;
7049;SDS011;22263;52.260;10.548;2022-12-07T05:19:27;34.17;;;18.70;;
7049;SDS011;22263;52.260;10.548;2022-12-07T05:21:56;30.77;;;17.93;;
7049;SDS011;22263;52.260;10.548;2022-12-07T05:24:26;30.07;;;18.00;;
7049;SDS011;22263;52.260;10.548;2022-12-07T05:26:56;32.37;;;18.97;;
7049;SDS011;22263;52.260;10.548;2022-12-07T05:29:25;29.47;;;17.53;;
7049;SDS011;22263;52.260;10.548;2022-12-07T05:31:55;32.00;;;18.33;;
7049;SDS011;22263;52.260;10.548;2022-12-07T05:34:27;30.43;;;17.73;;
7049;SDS011;22263;52.260;10.548;2022-12-07T05:36:57;33.20;;;17.93;;
7049;SDS011;22263;52.260;10.548;2022-12-07T05:39:26;28.47;;;18.23;;
7049;SDS011;22263;52.260;10.548;2022-12-07T05:41:56;28.90;;;16.97;;
7049;SDS011;22263;52.260;10.548;2022-12-07T05:44:38;27.83;;;16.90;;
7049;SDS011;22263;52.260;10.548;2022-12-07T05:47:08;29.93;;;16.77;;
7049;SDS011;22263;52.260;10.548;2022-12-07T05:49:40;27.40;;;17.33;;
7049;SDS011;22263;52.260;10.548;2022-12-07T05:52:10;27.97;;;17.73;;
7049;SDS011;22263;52.260;10.548;2022-12-07T05:54:40;31.80;;;17.03;;
7049;SDS011;22263;52.260;10.548;2022-12-07T05:57:10;29.90;;;17.10;;
7049;SDS011;22263;52.260;10.548;2022-12-07T05:59:39;29.17;;;17.80;;
7049;SDS011;22263;52.260;10.548;2022-12-07T06:02:07;28.23;;;15.60;;
7049;SDS011;22263;52.260;10.548;2022-12-07T06:04:42;26.97;;;16.00;;
7049;SDS011;22263;52.260;10.548;2022-12-07T06:07:13;27.03;;;15.87;;
7049;SDS011;22263;52.260;10.548;2022-12-07T06:09:45;25.50;;;16.23;;
7049;SDS011;22263;52.260;10.548;2022-12-07T06:12:14;32.83;;;16.60;;
7049;SDS011;22263;52.260;10.548;2022-12-07T06:14:56;27.53;;;16.20;;
7049;SDS011;22263;52.260;10.548;2022-12-07T06:17:26;27.33;;;15.53;;
7049;SDS011;22263;52.260;10.548;2022-12-07T06:19:58;26.03;;;13.47;;
7049;SDS011;22263;52.260;10.548;2022-12-07T06:22:28;19.40;;;12.47;;
7049;SDS011;22263;52.260;10.548;2022-12-07T06:24:58;17.17;;;10.80;;
7049;SDS011;22263;52.260;10.548;2022-12-07T06:27:34;18.00;;;10.40;;
7049;SDS011;22263;52.260;10.548;2022-12-07T06:30:04;12.80;;;7.27;;
7049;SDS011;22263;52.260;10.548;2022-12-07T06:32:35;12.70;;;6.87;;
7049;SDS011;22263;52.260;10.548;2022-12-07T06:35:08;11.43;;;6.83;;
7049;SDS011;22263;52.260;10.548;2022-12-07T06:37:38;15.30;;;8.53;;
7049;SDS011;22263;52.260;10.548;2022-12-07T06:40:08;14.67;;;8.40;;
7049;SDS011;22263;52.260;10.548;2022-12-07T06:42:38;14.57;;;8.10;;
7049;SDS011;22263;52.260;10.548;2022-12-07T06:45:08;13.93;;;8.77;;
7049;SDS011;22263;52.260;10.548;2022-12-07T06:47:39;17.13;;;10.50;;
7049;SDS011;22263;52.260;10.548;2022-12-07T06:50:13;19.80;;;11.40;;
7049;SDS011;22263;52.260;10.548;2022-12-07T06:52:43;18.80;;;10.63;;
7049;SDS011;22263;52.260;10.548;2022-12-07T06:55:13;20.87;;;10.97;;
7049;SDS011;22263;52.260;10.548;2022-12-07T06:57:42;20.93;;;11.77;;
7049;SDS011;22263;52.260;10.548;2022-12-07T07:00:13;21.83;;;11.87;;
7049;SDS011;22263;52.260;10.548;2022-12-07T07:02:47;17.87;;;11.10;;
7049;SDS011;22263;52.260;10.548;2022-12-07T07:05:19;24.00;;;13.27;;
7049;SDS011;22263;52.260;10.548;2022-12-07T07:07:49;27.23;;;15.00;;
7049;SDS011;22263;52.260;10.548;2022-12-07T07:10:39;27.67;;;15.77;;
7049;SDS011;22263;52.260;10.548;2022-12-07T07:13:09;34.03;;;17.07;;
7049;SDS011;22263;52.260;10.548;2022-12-07T07:15:39;32.40;;;16.90;;
7049;SDS011;22263;52.260;10.548;2022-12-07T07:18:08;36.70;;;19.80;;
7049;SDS011;22263;52.260;10.548;2022-12-07T07:20:41;36.70;;;19.83;;
7049;SDS011;22263;52.260;10.548;2022-12-07T07:23:10;43.33;;;21.83;;
7049;SDS011;22263;52.260;10.548;2022-12-07T07:25:40;39.60;;;21.50;;
7049;SDS011;22263;52.260;10.548;2022-12-07T07:28:10;45.20;;;22.67;;
7049;SDS011;22263;52.260;10.548;2022-12-07T07:30:40;43.47;;;22.57;;
7049;SDS011;22263;52.260;10.548;2022-12-07T07:33:10;44.47;;;22.80;;
7049;SDS011;22263;52.260;10.548;2022-12-07T07:35:42;42.33;;;22.50;;
7049;SDS011;22263;52.260;10.548;2022-12-07T07:38:12;46.43;;;22.43;;
7049;SDS011;22263;52.260;10.548;2022-12-07T07:40:42;41.87;;;22.37;;
7049;SDS011;22263;52.260;10.548;2022-12-07T07:43:11;49.43;;;22.33;;
7049;SDS011;22263;52.260;10.548;2022-12-07T07:45:41;52.90;;;22.20;;
7049;SDS011;22263;52.260;10.548;2022-12-07T07:48:10;41.47;;;21.60;;
7049;SDS011;22263;52.260;10.548;2022-12-07T07:50:43;51.50;;;25.40;;
7049;SDS011;22263;52.260;10.548;2022-12-07T07:53:12;43.83;;;21.73;;
7049;SDS011;22263;52.260;10.548;2022-12-07T07:55:44;43.20;;;21.67;;
7049;SDS011;22263;52.260;10.548;2022-12-07T07:58:19;46.23;;;21.23;;
7049;SDS011;22263;52.260;10.548;2022-12-07T08:00:49;40.13;;;21.83;;
7049;SDS011;22263;52.260;10.548;2022-12-07T08:03:19;46.10;;;21.73;;
7049;SDS011;22263;52.260;10.548;2022-12-07T08:05:51;43.27;;;21.07;;
7049;SDS011;22263;52.260;10.548;2022-12-07T08:08:21;42.47;;;22.30;;
7049;SDS011;22263;52.260;10.548;2022-12-07T08:10:51;46.67;;;22.43;;
7049;SDS011;22263;52.260;10.548;2022-12-07T08:13:20;43.40;;;22.07;;
7049;SDS011;22263;52.260;10.548;2022-12-07T08:15:56;42.03;;;21.43;;
7049;SDS011;22263;52.260;10.548;2022-12-07T08:18:26;43.90;;;22.63;;
7049;SDS011;22263;52.260;10.548;2022-12-07T08:21:00;41.70;;;21.17;;
7049;SDS011;22263;52.260;10.548;2022-12-07T08:23:31;41.67;;;22.07;;
7049;SDS011;22263;52.260;10.548;2022-12-07T08:26:06;44.43;;;21.33;;
7049;SDS011;22263;52.260;10.548;2022-12-07T08:28:36;34.10;;;19.60;;
7049;SDS011;22263;52.260;10.548;2022-12-07T08:31:07;43.37;;;20.40;;
7049;SDS011;22263;52.260;10.548;2022-12-07T08:33:39;43.53;;;21.27;;
7049;SDS011;22263;52.260;10.548;2022-12-07T08:36:12;49.30;;;21.63;;
7049;SDS011;22263;52.260;10.548;2022-12-07T08:38:42;46.90;;;21.40;;
7049;SDS011;22263;52.260;10.548;2022-12-07T08:41:31;42.07;;;21.30;;
7049;SDS011;22263;52.260;10.548;2022-12-07T08:44:01;37.47;;;19.87;;
7049;SDS011;22263;52.260;10.548;2022-12-07T08:46:32;33.53;;;19.33;;
7049;SDS011;22263;52.260;10.548;2022-12-07T08:49:07;38.77;;;19.80;;
7049;SDS011;22263;52.260;10.548;2022-12-07T08:51:43;41.40;;;19.07;;
7049;SDS011;22263;52.260;10.548;2022-12-07T08:54:14;32.37;;;17.97;;
7049;SDS011;22263;52.260;10.548;2022-12-07T08:56:46;30.93;;;17.93;;
7049;SDS011;22263;52.260;10.548;2022-12-07T08:59:24;29.93;;;17.40;;
7049;SDS011;22263;52.260;10.548;2022-12-07T09:01:55;32.07;;;18.27;;
7049;SDS011;22263;52.260;10.548;2022-12-07T09:04:25;29.57;;;17.73;;
7049;SDS011;22263;52.260;10.548;2022-12-07T09:06:57;32.80;;;17.73;;
7049;SDS011;22263;52.260;10.548;2022-12-07T09:09:27;29.63;;;17.40;;
7049;SDS011;22263;52.260;10.548;2022-12-07T09:11:59;27.40;;;16.40;;
7049;SDS011;22263;52.260;10.548;2022-12-07T09:14:29;34.50;;;18.77;;
7049;SDS011;22263;52.260;10.548;2022-12-07T09:17:04;30.67;;;16.57;;
7049;SDS011;22263;52.260;10.548;2022-12-07T09:19:35;30.17;;;17.40;;
7049;SDS011;22263;52.260;10.548;2022-12-07T09:22:07;36.03;;;17.30;;
7049;SDS011;22263;52.260;10.548;2022-12-07T09:24:37;28.60;;;17.90;;
7049;SDS011;22263;52.260;10.548;2022-12-07T09:27:07;32.37;;;17.03;;
7049;SDS011;22263;52.260;10.548;2022-12-07T09:29:36;31.93;;;16.67;;
7049;SDS011;22263;52.260;10.548;2022-12-07T09:32:06;31.60;;;16.33;;
7049;SDS011;22263;52.260;10.548;2022-12-07T09:34:37;31.07;;;16.83;;
7049;SDS011;22263;52.260;10.548;2022-12-07T09:37:09;35.53;;;18.00;;
7049;SDS011;22263;52.260;10.548;2022-12-07T09:39:39;30.90;;;17.47;;
7049;SDS011;22263;52.260;10.548;2022-12-07T09:42:27;31.63;;;19.20;;
7049;SDS011;22263;52.260;10.548;2022-12-07T09:45:02;31.67;;;17.97;;
7049;SDS011;22263;52.260;10.548;2022-12-07T09:47:34;29.03;;;19.10;;
7049;SDS011;22263;52.260;10.548;2022-12-07T09:50:05;32.77;;;18.23;;
7049;SDS011;22263;52.260;10.548;2022-12-07T09:52:44;28.50;;;17.17;;
7049;SDS011;22263;52.260;10.548;2022-12-07T09:55:16;27.07;;;16.87;;
7049;SDS011;22263;52.260;10.548;2022-12-07T09:57:52;27.17;;;16.00;;
7049;SDS011;22263;52.260;10.548;2022-12-07T10:00:22;26.33;;;15.37;;
7049;SDS011;22263;52.260;10.548;2022-12-07T10:02:55;25.83;;;14.97;;
7049;SDS011;22263;52.260;10.548;2022-12-07T10:05:26;22.97;;;14.40;;
7049;SDS011;22263;52.260;10.548;2022-12-07T10:08:01;22.67;;;14.33;;
7049;SDS011;22263;52.260;10.548;2022-12-07T10:10:32;23.80;;;15.37;;
7049;SDS011;22263;52.260;10.548;2022-12-07T10:13:06;21.87;;;14.37;;
7049;SDS011;22263;52.260;10.548;2022-12-07T10:15:44;23.33;;;15.10;;
7049;SDS011;22263;52.260;10.548;2022-12-07T10:18:17;26.97;;;14.77;;
7049;SDS011;22263;52.260;10.548;2022-12-07T10:20:48;27.37;;;13.90;;
7049;SDS011;22263;52.260;10.548;2022-12-07T10:23:21;27.93;;;13.73;;
7049;SDS011;22263;52.260;10.548;2022-12-07T10:25:50;24.00;;;12.87;;
7049;SDS011;22263;52.260;10.548;2022-12-07T10:28:21;23.23;;;11.90;;
7049;SDS011;22263;52.260;10.548;2022-12-07T10:30:52;20.77;;;10.07;;
7049;SDS011;22263;52.260;10.548;2022-12-07T10:33:33;18.43;;;11.00;;
7049;SDS011;22263;52.260;10.548;2022-12-07T10:36:18;17.50;;;9.63;;
7049;SDS011;22263;52.260;10.548;2022-12-07T10:38:58;20.83;;;9.03;;
7049;SDS011;22263;52.260;10.548;2022-12-07T10:41:29;15.17;;;8.30;;
7049;SDS011;22263;52.260;10.548;2022-12-07T10:43:59;16.67;;;8.93;;
7049;SDS011;22263;52.260;10.548;2022-12-07T10:49:48;21.00;;;10.37;;
7049;SDS011;22263;52.260;10.548;2022-12-07T10:52:37;18.30;;;10.10;;
7049;SDS011;22263;52.260;10.548;2022-12-07T10:55:19;22.80;;;10.67;;
7049;SDS011;22263;52.260;10.548;2022-12-07T10:57:56;18.40;;;9.63;;
7049;SDS011;22263;52.260;10.548;2022-12-07T11:00:43;16.10;;;10.20;;
7049;SDS011;22263;52.260;10.548;2022-12-07T11:03:33;13.47;;;9.43;;
7049;SDS011;22263;52.260;10.548;2022-12-07T11:06:12;13.10;;;8.43;;
7049;SDS011;22263;52.260;10.548;2022-12-07T11:08:54;15.10;;;8.57;;
7049;SDS011;22263;52.260;10.548;2022-12-07T11:11:35;14.33;;;7.23;;
7049;SDS011;22263;52.260;10.548;2022-12-07T11:14:14;10.03;;;7.20;;
7049;SDS011;22263;52.260;10.548;2022-12-07T11:16:53;12.50;;;7.20;;
7049;SDS011;22263;52.260;10.548;2022-12-07T11:19:29;13.63;;;6.43;;
7049;SDS011;22263;52.260;10.548;2022-12-07T11:22:13;9.33;;;5.57;;
7049;SDS011;22263;52.260;10.548;2022-12-07T11:24:49;14.07;;;5.20;;
7049;SDS011;22263;52.260;10.548;2022-12-07T11:27:30;12.77;;;5.23;;
7049;SDS011;22263;52.260;10.548;2022-12-07T11:30:11;10.83;;;5.27;;
7049;SDS011;22263;52.260;10.548;2022-12-07T11:35:44;10.27;;;5.10;;
7049;SDS011;22263;52.260;10.548;2022-12-07T11:38:22;14.07;;;6.47;;
7049;SDS011;22263;52.260;10.548;2022-12-07T11:40:58;9.77;;;5.30;;
7049;SDS011;22263;52.260;10.548;2022-12-07T11:43:49;10.27;;;4.73;;
7049;SDS011;22263;52.260;10.548;2022-12-07T11:46:24;8.77;;;3.30;;
7049;SDS011;22263;52.260;10.548;2022-12-07T11:48:58;8.27;;;3.37;;
7049;SDS011;22263;52.260;10.548;2022-12-07T11:51:34;6.50;;;3.57;;
7049;SDS011;22263;52.260;10.548;2022-12-07T11:54:11;8.97;;;3.60;;
7049;SDS011;22263;52.260;10.548;2022-12-07T11:56:43;9.33;;;3.93;;
7049;SDS011;22263;52.260;10.548;2022-12-07T11:59:19;8.90;;;3.83;;
7049;SDS011;22263;52.260;10.548;2022-12-07T12:01:55;9.27;;;3.70;;
7049;SDS011;22263;52.260;10.548;2022-12-07T12:04:32;9.50;;;4.10;;
7049;SDS011;22263;52.260;10.548;2022-12-07T12:07:17;6.23;;;3.67;;
7049;SDS011;22263;52.260;10.548;2022-12-07T12:10:14;12.73;;;3.97;;
7049;SDS011;22263;52.260;10.548;2022-12-07T12:16:12;7.90;;;3.17;;
7049;SDS011;22263;52.260;10.548;2022-12-07T12:19:01;7.03;;;3.60;;
7049;SDS011;22263;52.260;10.548;2022-12-07T12:21:43;10.67;;;5.30;;
7049;SDS011;22263;52.260;10.548;2022-12-07T12:24:23;8.30;;;4.50;;
7049;SDS011;22263;52.260;10.548;2022-12-07T12:26:57;9.73;;;4.50;;
7049;SDS011;22263;52.260;10.548;2022-12-07T12:29:33;9.33;;;4.23;;
7049;SDS011;22263;52.260;10.548;2022-12-07T12:32:11;10.20;;;4.07;;
7049;SDS011;22263;52.260;10.548;2022-12-07T12:37:41;11.67;;;4.63;;
7049;SDS011;22263;52.260;10.548;2022-12-07T12:46:37;8.67;;;4.27;;
7049;SDS011;22263;52.260;10.548;2022-12-07T12:49:35;7.03;;;3.80;;
7049;SDS011;22263;52.260;10.548;2022-12-07T12:55:27;11.53;;;4.43;;
7049;SDS011;22263;52.260;10.548;2022-12-07T12:58:27;7.60;;;4.43;;
7049;SDS011;22263;52.260;10.548;2022-12-07T13:07:47;4.60;;;2.73;;
7049;SDS011;22263;52.260;10.548;2022-12-07T13:10:25;5.33;;;2.80;;
7049;SDS011;22263;52.260;10.548;2022-12-07T13:19:01;5.03;;;2.50;;
7049;SDS011;22263;52.260;10.548;2022-12-07T13:21:41;4.37;;;2.60;;
7049;SDS011;22263;52.260;10.548;2022-12-07T13:24:15;3.00;;;2.20;;
7049;SDS011;22263;52.260;10.548;2022-12-07T13:26:44;4.97;;;3.10;;
7049;SDS011;22263;52.260;10.548;2022-12-07T13:29:15;6.30;;;3.77;;
7049;SDS011;22263;52.260;10.548;2022-12-07T13:31:49;5.17;;;3.60;;
7049;SDS011;22263;52.260;10.548;2022-12-07T13:34:27;7.10;;;3.77;;
7049;SDS011;22263;52.260;10.548;2022-12-07T13:37:00;6.07;;;3.30;;
7049;SDS011;22263;52.260;10.548;2022-12-07T13:39:34;3.90;;;3.10;;
7049;SDS011;22263;52.260;10.548;2022-12-07T13:42:15;8.10;;;3.50;;
7049;SDS011;22263;52.260;10.548;2022-12-07T13:44:51;7.47;;;3.40;;
7049;SDS011;22263;52.260;10.548;2022-12-07T13:47:23;5.00;;;3.30;;
7049;SDS011;22263;52.260;10.548;2022-12-07T13:49:59;7.90;;;3.07;;
7049;SDS011;22263;52.260;10.548;2022-12-07T13:52:29;9.47;;;3.03;;
7049;SDS011;22263;52.260;10.548;2022-12-07T13:55:11;7.80;;;2.87;;
7049;SDS011;22263;52.260;10.548;2022-12-07T13:57:45;10.67;;;5.53;;
7049;SDS011;22263;52.260;10.548;2022-12-07T14:00:20;5.13;;;3.00;;
7049;SDS011;22263;52.260;10.548;2022-12-07T14:02:55;6.50;;;3.20;;
7049;SDS011;22263;52.260;10.548;2022-12-07T14:05:26;7.13;;;3.17;;
7049;SDS011;22263;52.260;10.548;2022-12-07T14:07:58;7.27;;;3.50;;
7049;SDS011;22263;52.260;10.548;2022-12-07T14:10:33;7.57;;;3.53;;
7049;SDS011;22263;52.260;10.548;2022-12-07T14:13:21;6.30;;;3.07;;
7049;SDS011;22263;52.260;10.548;2022-12-07T14:15:57;8.03;;;3.73;;
7049;SDS011;22263;52.260;10.548;2022-12-07T14:18:28;6.73;;;3.30;;
7049;SDS011;22263;52.260;10.548;2022-12-07T14:21:02;7.03;;;3.70;;
7049;SDS011;22263;52.260;10.548;2022-12-07T14:23:33;7.57;;;3.53;;
7049;SDS011;22263;52.260;10.548;2022-12-07T14:26:10;8.83;;;3.83;;
7049;SDS011;22263;52.260;10.548;2022-12-07T14:28:42;9.73;;;4.10;;
7049;SDS011;22263;52.260;10.548;2022-12-07T14:31:13;10.93;;;3.77;;
7049;SDS011;22263;52.260;10.548;2022-12-07T14:33:58;9.10;;;4.60;;
7049;SDS011;22263;52.260;10.548;2022-12-07T14:36:28;13.60;;;4.80;;
7049;SDS011;22263;52.260;10.548;2022-12-07T14:38:57;13.77;;;5.37;;
7049;SDS011;22263;52.260;10.548;2022-12-07T14:41:29;14.57;;;4.97;;
7049;SDS011;22263;52.260;10.548;2022-12-07T14:44:12;10.07;;;4.20;;
7049;SDS011;22263;52.260;10.548;2022-12-07T14:46:55;9.73;;;4.37;;
7049;SDS011;22263;52.260;10.548;2022-12-07T14:49:44;10.50;;;4.63;;
7049;SDS011;22263;52.260;10.548;2022-12-07T14:52:14;10.63;;;4.07;;
7049;SDS011;22263;52.260;10.548;2022-12-07T14:55:11;10.03;;;4.70;;
7049;SDS011;22263;52.260;10.548;2022-12-07T14:57:46;11.50;;;4.77;;
7049;SDS011;22263;52.260;10.548;2022-12-07T15:00:16;14.53;;;4.27;;
7049;SDS011;22263;52.260;10.548;2022-12-07T15:02:47;10.63;;;4.10;;
7049;SDS011;22263;52.260;10.548;2022-12-07T15:05:17;12.77;;;4.97;;
7049;SDS011;22263;52.260;10.548;2022-12-07T15:07:47;12.63;;;4.60;;
7049;SDS011;22263;52.260;10.548;2022-12-07T15:10:19;9.60;;;4.27;;
7049;SDS011;22263;52.260;10.548;2022-12-07T15:12:53;11.50;;;4.40;;
7049;SDS011;22263;52.260;10.548;2022-12-07T15:15:42;6.27;;;3.93;;
7049;SDS011;22263;52.260;10.548;2022-12-07T15:18:12;14.13;;;3.77;;
7049;SDS011;22263;52.260;10.548;2022-12-07T15:20:42;14.10;;;3.90;;
7049;SDS011;22263;52.260;10.548;2022-12-07T15:23:12;8.17;;;3.87;;
7049;SDS011;22263;52.260;10.548;2022-12-07T15:25:43;12.90;;;3.67;;
7049;SDS011;22263;52.260;10.548;2022-12-07T15:28:16;12.07;;;3.50;;
7049;SDS011;22263;52.260;10.548;2022-12-07T15:30:45;8.50;;;4.10;;
7049;SDS011;22263;52.260;10.548;2022-12-07T15:33:15;9.47;;;3.57;;
7049;SDS011;22263;52.260;10.548;2022-12-07T15:35:45;13.07;;;4.27;;
7049;SDS011;22263;52.260;10.548;2022-12-07T15:38:14;10.50;;;4.00;;
7049;SDS011;22263;52.260;10.548;2022-12-07T15:41:04;11.80;;;3.60;;
7049;SDS011;22263;52.260;10.548;2022-12-07T15:43:36;11.03;;;4.00;;